Madison, SD

8:24 AM CST on December 04, 2016 (GMT -0600)
Madison Municipal

Weather History for KMDS - March, 2013

Change the Weather History Date:

Wednesday, March 13, 2013

  Actual Average Record
Temperature  
Mean Temperature 20 °F -  
Max Temperature 33 °F 37 °F 73 °F (2012)
Min Temperature 8 °F 20 °F 6 °F (2011)
Degree Days  
Heating Degree Days 44    
Moisture  
Dew Point 21 °F    
Average Humidity 93    
Maximum Humidity 100    
Minimum Humidity 69    
Precipitation  
Precipitation 0.00 in - - ()
Sea Level Pressure  
Sea Level Pressure 30.25 in    
Wind  
Wind Speed 9 mph (SSW)    
Max Wind Speed 18 mph    
Max Gust Speed 24 mph    
Visibility 10 miles    
Events      
Averages and records for this station are not official NWS values.
T = Trace of Precipitation, MM = Missing Value Source: NWS Daily Summary

Daily Weather History Graph

Daily Weather History Graph

Search for Another Location

Airport or City:

Trip Planner

Search our weather history database for the weather conditions in past years. The results will help you decide how hot, cold, wet, or windy it might be!

Date:

Astronomy

Mar. 13, 2013 Rise Set
Actual Time 7:43 AM CDT 7:32 PM CDT
Civil Twilight 7:14 AM CDT 8:01 PM CDT
Nautical Twilight 6:41 AM CDT 8:34 PM CDT
Astronomical Twilight 6:07 AM CDT 9:08 PM CDT
Moon 8:18 AM CDT (3/13) 9:56 PM CDT (3/13)
Length of Visible Light 12h 46m
Length of Day
11h 48m
Waxing Crescent, 4% of the Moon is Illuminated
Mar 13
Waxing Crescent
Mar 19
First Quarter
Mar 27
Full
Apr 2
Last Quarter
Apr 10
New

Hourly Weather History & Observations

Time (CDT) Temp. Windchill Dew Point Humidity Pressure Visibility Wind Dir Wind Speed Gust Speed Precip Events Conditions
12:35 AM 17.6 °F 4.3 °F 17.6 °F 100% 30.28 in 10.0 mi North 12.7 mph - N/A   Overcast
12:55 AM 17.6 °F 5.7 °F 17.6 °F 100% 30.28 in 10.0 mi North 10.4 mph - N/A   Overcast
1:15 AM 15.8 °F 2.7 °F 15.8 °F 100% 30.28 in 10.0 mi North 11.5 mph - N/A   Mostly Cloudy
1:35 AM 15.8 °F 5.1 °F 15.8 °F 100% 30.28 in 10.0 mi North 8.1 mph - N/A   Mostly Cloudy
1:55 AM 15.8 °F 2.7 °F 15.8 °F 100% 30.28 in 10.0 mi NNW 11.5 mph - N/A   Overcast
2:15 AM 15.8 °F 2.7 °F 15.8 °F 100% 30.29 in 10.0 mi North 11.5 mph - N/A   Overcast
2:35 AM 15.8 °F 6.1 °F 15.8 °F 100% 30.30 in 10.0 mi NNW 6.9 mph - N/A   Overcast
2:55 AM 15.8 °F 6.1 °F 15.8 °F 100% 30.30 in 10.0 mi NNW 6.9 mph - N/A   Overcast
3:35 AM 14.0 °F 3.9 °F 14.0 °F 100% 30.31 in 10.0 mi NW 6.9 mph - N/A   Mostly Cloudy
3:55 AM 14.0 °F 3.9 °F 14.0 °F 100% 30.31 in 10.0 mi NW 6.9 mph - N/A   Clear
4:15 AM 12.2 °F 2.9 °F 12.2 °F 100% 30.31 in 10.0 mi NNW 5.8 mph - N/A   Clear
4:35 AM 12.2 °F 2.9 °F 12.2 °F 100% 30.30 in 10.0 mi North 5.8 mph - N/A   Clear
4:55 AM 12.2 °F - 12.2 °F 100% 30.29 in 10.0 mi Calm Calm - N/A   Clear
5:15 AM 10.4 °F 4.0 °F 10.4 °F 100% 30.30 in 10.0 mi West 3.5 mph - N/A   Clear
5:35 AM 10.4 °F - 10.4 °F 100% 30.30 in 10.0 mi Calm Calm - N/A   Clear
5:55 AM 10.4 °F 4.0 °F 10.4 °F 100% 30.30 in 10.0 mi NW 3.5 mph - N/A   Clear
6:15 AM 10.4 °F 4.0 °F 10.4 °F 100% 30.31 in 10.0 mi NW 3.5 mph - N/A   Clear
6:35 AM 10.4 °F - 10.4 °F 100% 30.31 in 10.0 mi Calm Calm - N/A   Clear
6:55 AM 10.4 °F 4.0 °F 10.4 °F 100% 30.32 in 10.0 mi WNW 3.5 mph - N/A   Clear
7:15 AM 10.4 °F - 10.4 °F 100% 30.32 in 10.0 mi Calm Calm - N/A   Clear
7:35 AM 8.6 °F -2.6 °F 8.6 °F 100% 30.32 in 10.0 mi West 6.9 mph - N/A   Clear
7:55 AM 10.4 °F 2.2 °F 10.4 °F 100% 30.33 in 10.0 mi West 4.6 mph - N/A   Clear
8:15 AM 10.4 °F 2.2 °F 10.4 °F 100% 30.33 in 10.0 mi WSW 4.6 mph - N/A   Clear
8:35 AM 12.2 °F 4.3 °F 12.2 °F 100% 30.33 in 10.0 mi WSW 4.6 mph - N/A   Clear
8:55 AM 14.0 °F - 14.0 °F 100% 30.33 in 10.0 mi Calm Calm - N/A   Clear
9:15 AM 14.0 °F 8.2 °F 14.0 °F 100% 30.33 in 10.0 mi SW 3.5 mph - N/A   Clear
9:35 AM 15.8 °F 10.2 °F 15.8 °F 100% 30.33 in 10.0 mi WSW 3.5 mph - N/A   Clear
9:55 AM 17.6 °F 10.7 °F 17.6 °F 100% 30.33 in 10.0 mi WSW 4.6 mph - N/A   Clear
10:15 AM 17.6 °F 12.3 °F 17.6 °F 100% 30.33 in 10.0 mi SSW 3.5 mph - N/A   Clear
10:35 AM 19.4 °F 14.3 °F 19.4 °F 100% 30.34 in 10.0 mi SSW 3.5 mph - N/A   Clear
10:55 AM 19.4 °F 14.3 °F 19.4 °F 100% 30.33 in 10.0 mi SE 3.5 mph - N/A   Clear
11:15 AM 21.2 °F 16.4 °F 19.4 °F 93% 30.33 in 10.0 mi SE 3.5 mph - N/A   Clear
11:35 AM 23.0 °F 17.0 °F 19.4 °F 86% 30.33 in 10.0 mi SSE 4.6 mph - N/A   Clear
11:55 AM 23.0 °F 14.7 °F 21.2 °F 93% 30.32 in 10.0 mi South 6.9 mph - N/A   Clear
12:15 PM 23.0 °F 13.9 °F 19.4 °F 86% 30.32 in 10.0 mi South 8.1 mph - N/A   Clear
12:35 PM 24.8 °F 16.1 °F 23.0 °F 93% 30.31 in 10.0 mi South 8.1 mph - N/A   Clear
12:55 PM 24.8 °F 15.3 °F 23.0 °F 93% 30.31 in 10.0 mi South 9.2 mph - N/A   Clear
1:15 PM 26.6 °F 16.8 °F 24.8 °F 93% 30.31 in 10.0 mi South 10.4 mph - N/A   Clear
1:35 PM 26.6 °F 17.5 °F 23.0 °F 86% 30.29 in 10.0 mi South 9.2 mph - N/A   Clear
1:55 PM 28.4 °F 19.7 °F 24.8 °F 86% 30.29 in 10.0 mi SSE 9.2 mph - N/A   Clear
2:15 PM 28.4 °F 20.4 °F 24.8 °F 86% 30.28 in 10.0 mi South 8.1 mph - N/A   Clear
2:35 PM 30.2 °F 21.3 °F 24.8 °F 80% 30.27 in 10.0 mi South 10.4 mph - N/A   Clear
2:55 PM 32.0 °F 23.0 °F 23.0 °F 69% 30.25 in 10.0 mi South 11.5 mph - N/A   Clear
3:15 PM 32.0 °F 23.6 °F 24.8 °F 75% 30.24 in 10.0 mi South 10.4 mph - N/A   Clear
3:35 PM 32.0 °F 22.5 °F 24.8 °F 75% 30.24 in 10.0 mi South 12.7 mph - N/A   Clear
3:55 PM 32.0 °F 22.5 °F 23.0 °F 69% 30.22 in 10.0 mi South 12.7 mph - N/A   Clear
4:15 PM 32.0 °F 21.2 °F 23.0 °F 69% 30.22 in 10.0 mi South 16.1 mph 19.6 mph N/A   Clear
4:35 PM 32.0 °F 22.1 °F 24.8 °F 75% 30.21 in 10.0 mi South 13.8 mph - N/A   Clear
4:55 PM 32.0 °F 21.6 °F 24.8 °F 75% 30.21 in 10.0 mi South 15.0 mph - N/A   Clear
5:15 PM 32.0 °F 21.2 °F 26.6 °F 80% 30.21 in 10.0 mi South 16.1 mph - N/A   Clear
5:35 PM 33.8 °F 24.8 °F 28.4 °F 81% 30.20 in 10.0 mi South 12.7 mph - N/A   Clear
5:55 PM 32.0 °F 21.2 °F 28.4 °F 87% 30.19 in 10.0 mi South 16.1 mph - N/A   Clear
6:15 PM 32.0 °F 21.6 °F 28.4 °F 87% 30.18 in 10.0 mi South 15.0 mph - N/A   Clear
6:35 PM 32.0 °F 22.1 °F 28.4 °F 87% 30.18 in 10.0 mi SSE 13.8 mph - N/A   Clear
6:55 PM 32.0 °F 22.5 °F 28.4 °F 87% 30.17 in 10.0 mi South 12.7 mph - N/A   Clear
7:15 PM 32.0 °F 21.6 °F 28.4 °F 87% 30.17 in 10.0 mi South 15.0 mph 19.6 mph N/A   Clear
7:35 PM 32.0 °F 21.2 °F 28.4 °F 87% 30.16 in 10.0 mi South 16.1 mph - N/A   Clear
7:55 PM 32.0 °F - 28.4 °F 87% 30.16 in 10.0 mi North - - N/A   Clear
8:15 PM 30.2 °F 19.3 °F 28.4 °F 93% 30.16 in 10.0 mi South 15.0 mph 18.4 mph N/A   Clear
8:35 PM 30.2 °F 18.9 °F 28.4 °F 93% 30.15 in 10.0 mi South 16.1 mph 24.2 mph N/A   Clear
8:55 PM 28.4 °F 16.2 °F 28.4 °F 100% 30.15 in 10.0 mi South 17.3 mph 21.9 mph N/A   Partly Cloudy
9:15 PM 28.4 °F 16.6 °F 28.4 °F 100% 30.14 in 10.0 mi South 16.1 mph 23.0 mph N/A   Mostly Cloudy
9:35 PM 28.4 °F 15.8 °F 28.4 °F 100% 30.13 in 10.0 mi South 18.4 mph 23.0 mph N/A   Mostly Cloudy
9:55 PM 28.4 °F 16.2 °F 28.4 °F 100% 30.13 in 10.0 mi South 17.3 mph 23.0 mph N/A   Scattered Clouds
10:15 PM 28.4 °F 17.0 °F 28.4 °F 100% 30.13 in 10.0 mi South 15.0 mph 23.0 mph N/A   Scattered Clouds
10:35 PM 28.4 °F 15.8 °F 28.4 °F 100% 30.11 in 10.0 mi South 18.4 mph - N/A   Scattered Clouds
10:55 PM 28.4 °F 17.5 °F 28.4 °F 100% 30.10 in 10.0 mi South 13.8 mph - N/A   Partly Cloudy
11:15 PM 28.4 °F 17.0 °F 28.4 °F 100% 30.10 in 10.0 mi South 15.0 mph - N/A   Scattered Clouds
11:35 PM 28.4 °F 15.8 °F 28.4 °F 100% 30.08 in 10.0 mi South 18.4 mph 24.2 mph N/A   Mostly Cloudy
11:55 PM 28.4 °F 15.8 °F 28.4 °F 100% 30.08 in 10.0 mi South 18.4 mph 24.2 mph N/A   Overcast